Terminal Aerodrome Forecast
Issued by NWS

Home | Current Version | Previous Version | Text Only | Print | Product List | Glossary On
Versions: 1 2 3 4 5 6 7 8 9 10 11 12 13 14 15
000
FTUS41 KCAR 291728
TAFBHB
TAF
KBHB 291728Z 2918/3018 29013G24KT P6SM SCT100
     FM292300 33010KT P6SM FEW250
     FM300200 32006KT P6SM SKC
     FM301400 26004KT P6SM SKC=

USA.gov is the U.S. government's official web portal to all federal, state and local government web resources and services.